Time;durP1;ratioP1;P1;durP2;ratioP2;P2;SDS_P1;SDS_P2;PMS_P1;PMS_P2;Temp;Humidity;BMP_temperature;BMP_pressure;BME280_temperature;BME280_humidity;BME280_pressure;Samples;Min_cycle;Max_cycle;Signal;HPM_P1;HPM_P2
2024/02/18 00:02:13;;;;;;;12.60;11.37;;;9.80;87.30;;;9.67;82.12;99601.09;5059421;28;20553;-76
2024/02/18 00:04:40;;;;;;;12.10;10.80;;;9.80;87.30;;;9.64;82.57;99600.41;5057636;28;20542;-76
2024/02/18 00:07:07;;;;;;;13.10;11.40;;;9.80;87.60;;;9.65;82.83;99590.44;5046671;28;20472;-77
2024/02/18 00:09:34;;;;;;;13.70;11.73;;;9.70;87.70;;;9.63;82.48;99590.63;5033087;28;20496;-78
2024/02/18 00:12:03;;;;;;;13.07;11.13;;;9.70;87.80;;;9.62;82.97;99588.91;5055428;28;20479;-73
2024/02/18 00:14:30;;;;;;;12.87;11.37;;;9.70;87.90;;;9.63;82.47;99601.44;5047196;28;20519;-78
2024/02/18 00:16:58;;;;;;;16.03;12.27;;;9.70;88.00;;;9.58;81.98;99562.47;5049252;28;20451;-72
2024/02/18 00:19:25;;;;;;;12.47;11.20;;;9.80;87.90;;;9.81;81.77;99584.19;5072238;28;20463;-76
2024/02/18 00:21:52;;;;;;;13.33;10.50;;;9.90;87.80;;;9.87;81.75;99586.19;5049148;28;20843;-76
2024/02/18 00:24:19;;;;;;;14.90;10.50;;;9.90;87.60;;;9.70;81.66;99581.84;5048486;28;20462;-77
2024/02/18 00:26:51;;;;;;;12.33;10.73;;;9.90;87.40;;;9.77;82.45;99585.53;5060119;28;20456;-76
2024/02/18 00:29:20;;;;;;;15.93;12.90;;;9.90;87.60;;;9.73;81.79;99576.97;5043145;28;20458;-76
2024/02/18 00:31:48;;;;;;;17.00;11.97;;;9.90;87.30;;;9.69;81.64;99583.69;5048802;28;20467;-77
2024/02/18 00:34:20;;;;;;;16.20;12.60;;;9.80;87.50;;;9.59;84.04;99589.28;5047911;28;20479;-76
2024/02/18 00:36:47;;;;;;;14.63;12.27;;;9.80;88.10;;;9.45;85.44;99589.97;5048678;28;20454;-76
2024/02/18 00:39:14;;;;;;;12.30;11.00;;;9.70;88.90;;;9.35;86.34;99587.44;5047224;28;20465;-73
2024/02/18 00:41:42;;;;;;;16.13;12.20;;;9.70;89.10;;;9.41;86.18;99580.53;5052127;28;20789;-77
2024/02/18 00:44:09;;;;;;;14.00;11.03;;;9.70;89.30;;;9.45;85.88;99581.88;5059762;28;20496;-77
2024/02/18 00:46:37;;;;;;;13.10;10.90;;;9.70;89.20;;;9.34;85.46;99592.00;5049541;28;20448;-73
2024/02/18 00:49:05;;;;;;;14.20;12.60;;;9.70;89.10;;;9.41;84.96;99572.44;5047863;28;20463;-76
2024/02/18 00:51:32;;;;;;;12.40;11.10;;;9.70;89.20;;;9.41;85.88;99583.22;5052248;28;20463;-77
2024/02/18 00:53:59;;;;;;;22.60;15.37;;;9.60;89.30;;;9.21;86.15;99587.09;5047869;28;20446;-75
2024/02/18 00:56:27;;;;;;;15.67;11.03;;;9.60;89.40;;;9.32;86.84;99577.00;5048713;28;20454;-74
2024/02/18 00:58:54;;;;;;;13.40;12.00;;;9.50;90.00;;;9.28;87.74;99581.88;5047797;28;20468;-76
2024/02/18 01:01:21;;;;;;;13.00;10.30;;;9.50;90.20;;;9.30;87.41;99581.72;5048354;28;20491;-76
2024/02/18 01:03:50;;;;;;;13.10;11.13;;;9.50;90.20;;;9.24;86.84;99567.06;5051462;28;20465;-76
2024/02/18 01:06:17;;;;;;;12.83;11.37;;;9.50;90.20;;;9.28;86.51;99576.47;5057789;28;20457;-75
2024/02/18 01:08:44;;;;;;;13.50;11.00;;;9.50;90.40;;;9.06;86.82;99551.88;5044847;28;20482;-76
2024/02/18 01:11:12;;;;;;;14.33;11.50;;;9.40;90.30;;;9.34;86.55;99575.81;5048313;28;20468;-77
2024/02/18 01:13:39;;;;;;;12.93;11.20;;;9.40;90.70;;;9.32;86.81;99577.81;5047012;28;20810;-78
2024/02/18 01:16:07;;;;;;;13.17;11.50;;;9.50;90.40;;;9.34;86.55;99581.22;5054005;28;20958;-77
2024/02/18 01:18:40;;;;;;;12.90;11.07;;;9.40;90.60;;;9.30;86.72;99569.06;5047518;28;20448;-77
2024/02/18 01:21:09;;;;;;;13.43;11.80;;;9.50;90.30;;;9.32;86.10;99575.13;5048462;28;20570;-77
2024/02/18 01:23:36;;;;;;;18.40;12.77;;;9.50;90.40;;;9.33;86.18;99578.69;5046012;28;20477;-76
2024/02/18 01:26:04;;;;;;;14.53;12.23;;;9.50;90.20;;;9.37;86.89;99579.19;5046329;28;20510;-76
2024/02/18 01:28:31;;;;;;;12.53;11.20;;;9.50;90.40;;;9.41;86.13;99569.72;5068182;28;20497;-75
2024/02/18 01:30:58;;;;;;;16.47;11.60;;;9.50;90.40;;;9.39;86.54;99575.28;5051125;28;20869;-76
2024/02/18 01:33:26;;;;;;;14.50;12.63;;;9.50;90.20;;;9.40;85.61;99578.84;5045544;28;20996;-74
2024/02/18 01:35:53;;;;;;;16.00;11.93;;;9.60;90.20;;;9.29;86.34;99582.72;5047681;28;20949;-76
2024/02/18 01:38:22;;;;;;;13.67;12.27;;;9.60;90.20;;;9.25;86.99;99582.22;5049604;28;20465;-75
2024/02/18 01:40:49;;;;;;;14.10;11.83;;;9.50;90.30;;;9.17;87.04;99584.91;5046266;28;20933;-75
2024/02/18 01:43:17;;;;;;;13.10;11.23;;;9.40;90.50;;;9.11;87.86;99580.19;5046377;28;20799;-76
2024/02/18 01:45:46;;;;;;;17.17;11.13;;;9.30;90.80;;;9.10;87.58;99584.75;5047221;28;20482;-76
2024/02/18 01:48:14;;;;;;;16.97;11.93;;;9.20;91.00;;;9.07;88.37;99575.13;5046177;28;20449;-76
2024/02/18 01:50:42;;;;;;;15.37;12.07;;;9.20;91.20;;;9.09;88.26;99583.03;5047517;28;21003;-73
2024/02/18 01:53:10;;;;;;;17.80;12.97;;;9.20;91.40;;;9.12;87.84;99576.47;5045146;28;21036;-75
2024/02/18 01:55:41;;;;;;;13.20;11.80;;;9.20;91.40;;;9.10;87.65;99584.75;5047361;28;20458;-76
2024/02/18 01:58:08;;;;;;;13.80;12.13;;;9.20;91.50;;;9.14;88.45;99585.25;5046628;28;20473;-73
2024/02/18 02:00:39;;;;;;;14.80;12.43;;;9.30;91.50;;;9.14;88.34;99580.72;5059165;28;20441;-76
2024/02/18 02:03:07;;;;;;;16.33;12.40;;;9.20;91.50;;;9.14;88.11;99577.16;5051019;28;20498;-76
2024/02/18 02:05:39;;;;;;;14.77;12.03;;;9.20;91.50;;;9.14;87.83;99571.75;5045537;28;20454;-77
2024/02/18 02:08:07;;;;;;;14.03;11.50;;;9.20;91.50;;;9.07;88.73;99571.59;5037608;28;20969;-73
2024/02/18 02:10:35;;;;;;;12.93;11.60;;;9.20;91.50;;;9.07;88.38;99561.66;5048570;28;20471;-71
2024/02/18 02:13:05;;;;;;;13.90;12.20;;;9.20;91.80;;;9.21;87.90;99572.78;5051529;28;20867;-73
2024/02/18 02:15:32;;;;;;;14.13;11.97;;;9.30;91.90;;;9.21;87.66;99559.31;5051492;28;20456;-74
2024/02/18 02:17:59;;;;;;;13.73;11.37;;;9.40;91.30;;;9.25;87.65;99566.03;5049830;28;20981;-73
2024/02/18 02:20:27;;;;;;;12.57;11.27;;;9.40;91.00;;;9.22;87.10;99558.28;5049562;28;20452;-78
2024/02/18 02:22:54;;;;;;;12.93;11.40;;;9.40;90.90;;;9.06;87.62;99549.19;5047166;28;20462;-74
2024/02/18 02:25:22;;;;;;;12.53;10.97;;;9.30;91.00;;;8.98;87.89;99541.09;5040703;28;21006;-76
2024/02/18 02:28:01;;;;;;;13.03;11.13;;;9.20;91.20;;;9.04;88.67;99551.22;5048003;28;20459;-76
2024/02/18 02:30:29;;;;;;;14.97;12.17;;;9.20;91.50;;;9.04;88.61;99553.06;5049160;28;20579;-76
2024/02/18 02:32:57;;;;;;;13.70;11.63;;;9.20;91.60;;;8.96;88.25;99535.03;5049934;28;20469;-75
2024/02/18 02:35:27;;;;;;;15.27;12.77;;;9.10;91.70;;;9.05;88.74;99542.09;5048814;28;20445;-75
2024/02/18 02:37:58;;;;;;;16.57;13.33;;;9.20;91.80;;;8.96;87.96;99524.22;5041428;28;20462;-75
2024/02/18 02:40:25;;;;;;;18.57;13.63;;;9.10;91.80;;;9.16;87.62;99545.47;5046297;28;20521;-73
2024/02/18 02:42:52;;;;;;;15.73;13.07;;;9.20;91.70;;;9.26;88.00;99540.75;5046514;28;20455;-76
2024/02/18 02:45:20;;;;;;;16.00;13.10;;;9.30;91.70;;;9.27;86.62;99545.13;5044734;28;20450;-76
2024/02/18 02:47:50;;;;;;;23.10;14.37;;;9.40;91.30;;;9.37;86.84;99547.66;5046046;28;20463;-74
2024/02/18 02:50:17;;;;;;;24.90;17.53;;;9.40;91.30;;;9.09;87.78;99539.06;5044492;28;20454;-77
2024/02/18 02:52:45;;;;;;;18.50;15.50;;;9.40;91.00;;;9.05;88.99;99544.81;5046538;28;20521;-75
2024/02/18 02:55:13;;;;;;;20.10;15.50;;;9.40;91.10;;;9.00;88.95;99528.28;5058700;28;20445;-77
2024/02/18 02:57:40;;;;;;;12.37;11.07;;;9.40;91.20;;;8.90;89.57;99535.69;5060265;28;20449;-76
2024/02/18 03:00:10;;;;;;;12.53;11.07;;;9.40;91.20;;;8.77;90.35;99531.63;5047596;28;20464;-73
2024/02/18 03:02:37;;;;;;;12.80;10.57;;;9.20;91.50;;;8.57;91.63;99528.41;5050115;28;20457;-75
2024/02/18 03:05:09;;;;;;;12.43;9.70;;;9.10;91.70;;;8.56;91.80;99531.25;5047590;28;20439;-76
2024/02/18 03:07:36;;;;;;;16.53;10.37;;;9.10;92.00;;;8.57;92.37;99530.25;5046400;28;20488;-75
2024/02/18 03:10:04;;;;;;;11.23;10.03;;;9.00;92.30;;;8.69;91.51;99523.53;5055933;28;20455;-75
2024/02/18 03:12:32;;;;;;;11.23;10.07;;;9.00;92.20;;;8.67;91.17;99530.94;5050412;28;20473;-75
2024/02/18 03:15:02;;;;;;;10.70;9.60;;;9.10;92.10;;;8.72;91.38;99517.84;5045942;28;20459;-76
2024/02/18 03:17:29;;;;;;;17.40;11.03;;;9.00;92.10;;;8.53;92.24;99516.28;5045856;28;20548;-76
2024/02/18 03:19:57;;;;;;;11.90;9.30;;;9.00;92.10;;;8.43;92.94;99523.63;5046343;28;20851;-77
2024/02/18 03:22:25;;;;;;;11.00;9.90;;;8.90;92.60;;;8.58;91.55;99523.88;5049169;28;20456;-74
2024/02/18 03:24:52;;;;;;;11.63;10.27;;;9.00;92.70;;;8.62;91.36;99520.66;5045158;28;20446;-76
2024/02/18 03:27:20;;;;;;;12.27;9.93;;;9.00;92.30;;;8.45;92.41;99517.06;5048874;28;20452;-74
2024/02/18 03:29:48;;;;;;;11.00;9.90;;;9.00;92.30;;;8.54;92.68;99525.19;5047621;28;20486;-76
2024/02/18 03:32:15;;;;;;;11.23;9.23;;;8.80;92.60;;;8.69;91.37;99515.44;5049868;28;20451;-75
2024/02/18 03:34:43;;;;;;;11.40;10.20;;;8.90;92.80;;;8.69;91.73;99517.31;5046969;28;20457;-76
2024/02/18 03:37:10;;;;;;;11.80;9.50;;;8.90;93.00;;;8.57;91.57;99523.00;5048970;28;20448;-74
2024/02/18 03:39:39;;;;;;;11.37;9.83;;;8.90;92.80;;;8.56;92.25;99525.88;5046584;28;20447;-76
2024/02/18 03:42:07;;;;;;;13.37;9.60;;;8.90;93.00;;;8.17;92.43;99474.25;5049585;28;20490;-76
2024/02/18 03:44:34;;;;;;;11.00;9.57;;;8.90;92.60;;;8.54;92.15;99526.06;5055088;28;20546;-73
2024/02/18 03:47:01;;;;;;;14.70;9.70;;;8.90;92.70;;;8.53;91.38;99526.19;5048175;28;20831;-73
2024/02/18 03:49:29;;;;;;;11.43;10.23;;;8.90;92.50;;;8.26;93.50;99511.94;5048555;28;20464;-75
2024/02/18 03:51:56;;;;;;;11.90;9.80;;;8.80;92.70;;;8.25;93.84;99515.66;5052032;28;20446;-74
2024/02/18 03:54:24;;;;;;;12.10;10.00;;;8.80;92.70;;;8.45;92.58;99513.53;5056966;28;20487;-76
2024/02/18 03:56:52;;;;;;;11.20;9.60;;;8.80;92.90;;;8.40;93.23;99522.09;5041156;28;20453;-76
2024/02/18 03:59:20;;;;;;;11.63;9.50;;;8.70;92.90;;;8.39;92.28;99503.44;5047714;28;20465;-75
2024/02/18 04:01:47;;;;;;;13.07;9.93;;;8.80;93.20;;;8.41;92.24;99514.88;5049634;28;20457;-76
2024/02/18 04:04:14;;;;;;;11.13;9.83;;;8.70;93.10;;;8.48;92.90;99524.81;5050228;28;20447;-74
2024/02/18 04:06:42;;;;;;;10.83;9.20;;;8.70;93.20;;;8.44;91.75;99514.53;5058756;28;20444;-76
2024/02/18 04:09:11;;;;;;;11.43;10.23;;;8.80;93.30;;;8.27;93.11;99516.38;5044935;28;20988;-73
2024/02/18 04:11:38;;;;;;;12.17;9.70;;;8.70;93.00;;;8.41;92.51;99510.31;5047776;28;20525;-75
2024/02/18 04:14:08;;;;;;;11.67;9.67;;;8.70;93.20;;;8.42;92.30;99503.94;5050281;28;20467;-77
2024/02/18 04:16:35;;;;;;;10.70;9.60;;;8.60;93.30;;;8.29;92.68;99511.66;5046691;28;20988;-72
2024/02/18 04:19:02;;;;;;;11.00;9.90;;;8.70;93.10;;;8.19;93.09;99507.25;5047867;28;20461;-77
2024/02/18 04:21:29;;;;;;;13.60;9.90;;;8.60;93.10;;;8.14;93.13;99509.59;5049013;28;20464;-78
2024/02/18 04:23:56;;;;;;;10.53;8.97;;;8.60;93.00;;;8.22;93.23;99506.06;5048558;28;20795;-76
2024/02/18 04:26:24;;;;;;;12.93;9.80;;;8.60;93.20;;;7.82;93.74;99451.94;5048165;28;20447;-78
2024/02/18 04:28:51;;;;;;;11.03;9.60;;;8.60;93.30;;;8.17;93.20;99503.88;5044002;28;20453;-74
2024/02/18 04:31:20;;;;;;;11.40;9.80;;;8.60;93.40;;;8.16;94.00;99496.81;5048360;28;20453;-76
2024/02/18 04:33:47;;;;;;;11.90;10.17;;;8.60;93.40;;;8.18;93.85;99500.16;5048286;28;20492;-73
2024/02/18 04:36:15;;;;;;;10.47;9.43;;;8.60;93.70;;;8.16;93.98;99496.81;5047305;28;20451;-77
2024/02/18 04:38:42;;;;;;;11.20;9.87;;;8.60;93.60;;;8.26;93.24;99501.19;5047518;28;20500;-78
2024/02/18 04:41:09;;;;;;;10.20;9.20;;;8.60;93.50;;;8.27;93.91;99503.72;5049993;28;20456;-74
2024/02/18 04:43:36;;;;;;;10.90;9.20;;;8.60;93.30;;;8.36;93.34;99501.91;5047973;28;20459;-78
2024/02/18 04:46:04;;;;;;;13.93;10.37;;;8.60;93.60;;;8.28;92.75;99504.59;5048602;28;20452;-75
2024/02/18 04:48:32;;;;;;;14.83;9.37;;;8.60;93.30;;;8.25;93.77;99505.75;5049693;28;20473;-78
2024/02/18 04:50:59;;;;;;;12.53;10.63;;;8.50;93.70;;;8.31;93.07;99505.06;5058285;28;20977;-73
2024/02/18 04:53:27;;;;;;;9.63;8.63;;;8.50;93.80;;;8.31;93.01;99504.25;5051315;28;20558;-77
2024/02/18 04:55:54;;;;;;;10.10;9.10;;;8.60;93.60;;;8.33;92.76;99518.38;5049907;28;20465;-77
2024/02/18 04:58:23;;;;;;;11.70;9.60;;;8.70;93.20;;;8.17;93.31;99509.25;5050293;28;20467;-75
2024/02/18 05:00:50;;;;;;;14.40;9.60;;;8.60;93.00;;;8.29;93.47;99508.97;5052873;28;20461;-73
2024/02/18 05:03:17;;;;;;;10.60;9.53;;;8.50;93.50;;;8.39;92.57;99501.56;5052849;28;20786;-76
2024/02/18 05:05:45;;;;;;;10.93;9.57;;;8.60;93.60;;;8.04;94.36;99503.47;5046598;28;20502;-74
2024/02/18 05:08:13;;;;;;;12.67;9.50;;;8.50;93.40;;;8.19;94.47;99496.47;5044258;28;20513;-77
2024/02/18 05:10:40;;;;;;;10.40;8.63;;;8.50;93.70;;;8.26;93.34;99501.19;5048200;28;20456;-74
2024/02/18 05:13:07;;;;;;;13.00;9.73;;;8.50;93.60;;;8.28;92.75;99496.50;5054153;28;20474;-77
2024/02/18 05:15:34;;;;;;;10.20;8.60;;;8.50;93.90;;;8.16;92.67;99480.66;5047793;28;20485;-73
2024/02/18 05:18:02;;;;;;;12.40;9.20;;;8.50;93.80;;;8.08;93.79;99499.44;5052568;28;20460;-73
2024/02/18 05:20:29;;;;;;;13.60;9.60;;;8.50;93.70;;;8.07;93.94;99492.38;5052496;28;20478;-71
2024/02/18 05:22:58;;;;;;;11.73;9.97;;;8.50;93.70;;;8.18;93.80;99502.00;5048290;28;20455;-74
2024/02/18 05:25:25;;;;;;;10.20;9.00;;;8.50;93.60;;;8.28;93.71;99501.88;5054427;28;20502;-76
2024/02/18 05:27:52;;;;;;;10.50;9.40;;;8.60;93.80;;;8.40;94.03;99502.41;5040444;28;20509;-77
2024/02/18 05:30:20;;;;;;;10.20;9.10;;;8.70;94.40;;;8.34;93.13;99498.53;5046916;28;20484;-77
2024/02/18 05:32:47;;;;;;;11.13;7.87;;;8.70;93.40;;;8.35;93.05;99498.38;5052486;28;20464;-75
2024/02/18 05:35:14;;;;;;;11.07;9.70;;;8.60;93.70;;;8.33;93.23;99492.28;5046703;28;20491;-74
2024/02/18 05:37:41;;;;;;;10.17;8.77;;;8.60;94.00;;;8.30;92.88;99481.03;5045601;28;20445;-73
2024/02/18 05:40:11;;;;;;;11.07;9.13;;;8.60;93.90;;;8.14;94.11;99474.59;5045598;28;20456;-77
2024/02/18 05:42:38;;;;;;;11.30;9.27;;;8.60;93.60;;;8.05;94.47;99480.94;5045893;28;20499;-74
2024/02/18 05:45:06;;;;;;;10.40;9.30;;;8.50;93.50;;;8.11;93.63;99482.13;5041366;28;20987;-76
2024/02/18 05:47:34;;;;;;;9.70;8.77;;;8.50;93.40;;;8.10;94.08;99483.97;5043849;28;20488;-75
2024/02/18 05:50:01;;;;;;;9.80;8.80;;;8.50;93.70;;;8.17;93.26;99482.34;5051358;28;20458;-75
2024/02/18 05:52:28;;;;;;;10.17;9.07;;;8.50;93.50;;;8.19;93.07;99469.53;5057423;28;20462;-76
2024/02/18 05:54:56;;;;;;;10.47;8.90;;;8.50;93.60;;;8.27;92.65;99489.44;5049446;28;20542;-76
2024/02/18 05:57:24;;;;;;;10.77;8.40;;;8.50;93.50;;;7.70;93.11;99427.16;5060734;28;20537;-77
2024/02/18 05:59:52;;;;;;;10.07;9.03;;;8.40;93.20;;;8.03;92.17;99488.34;5050178;28;20453;-77
2024/02/18 06:02:19;;;;;;;10.17;8.47;;;8.40;92.70;;;8.16;92.34;99487.88;5054641;28;20449;-73
2024/02/18 06:04:47;;;;;;;10.00;9.00;;;8.40;92.90;;;8.15;91.23;99483.50;5053826;28;20547;-74
2024/02/18 06:07:14;;;;;;;9.63;8.63;;;8.40;92.90;;;8.09;91.50;99484.97;5073205;28;20452;-76
2024/02/18 06:09:42;;;;;;;10.07;9.07;;;8.30;92.60;;;8.12;91.28;99487.38;5075722;28;20930;-77
2024/02/18 06:12:09;;;;;;;9.47;8.57;;;8.40;92.80;;;8.20;91.52;99484.69;5052585;28;20452;-76
2024/02/18 06:14:37;;;;;;;13.13;9.30;;;8.40;92.60;;;8.16;90.66;99483.34;5044381;28;20541;-75
2024/02/18 06:17:05;;;;;;;10.63;8.60;;;8.40;92.30;;;8.09;91.44;99479.59;5046680;28;20446;-76
2024/02/18 06:19:32;;;;;;;10.80;8.60;;;8.30;92.70;;;8.08;91.40;99472.53;5045602;28;20922;-76
2024/02/18 06:21:59;;;;;;;9.87;8.97;;;8.30;92.80;;;7.85;93.12;99475.84;5045595;28;20456;-75
2024/02/18 06:24:28;;;;;;;10.70;8.83;;;8.30;92.80;;;7.77;93.64;99478.47;5044584;28;21192;-75
2024/02/18 06:26:55;;;;;;;9.97;8.97;;;8.10;93.00;;;7.82;93.23;99470.78;5053982;28;20447;-75
2024/02/18 06:29:22;;;;;;;9.07;7.80;;;8.00;93.60;;;7.76;94.34;99474.09;5053546;28;20537;-75
2024/02/18 06:31:51;;;;;;;11.33;9.43;;;8.00;93.90;;;7.76;94.72;99477.66;5046389;28;21070;-74
2024/02/18 06:34:18;;;;;;;16.10;9.83;;;7.90;94.60;;;7.97;93.65;99464.78;5046094;28;20576;-76
2024/02/18 06:36:46;;;;;;;12.23;9.40;;;8.10;95.30;;;7.68;94.89;99458.75;5047437;28;21019;-72
2024/02/18 06:39:13;;;;;;;12.10;8.60;;;8.10;94.30;;;7.88;95.27;99470.13;5046229;28;20450;-76
2024/02/18 06:41:40;;;;;;;10.03;9.03;;;8.20;94.60;;;7.97;94.34;99464.78;5052309;28;20538;-73
2024/02/18 06:44:07;;;;;;;10.53;8.97;;;8.30;94.20;;;8.04;93.28;99466.66;5074890;28;21167;-76
2024/02/18 06:46:35;;;;;;;11.53;8.73;;;8.30;93.80;;;8.00;93.88;99470.66;5055159;28;20451;-76
2024/02/18 06:49:03;;;;;;;10.23;8.23;;;8.30;93.50;;;8.02;92.73;99467.81;5050373;28;20462;-77
2024/02/18 06:51:30;;;;;;;11.17;8.43;;;8.40;93.30;;;7.91;93.54;99469.78;5045239;28;20470;-75
2024/02/18 06:53:57;;;;;;;9.67;8.60;;;8.40;93.10;;;7.77;94.02;99463.19;5054514;28;20869;-76
2024/02/18 06:56:24;;;;;;;11.43;8.90;;;8.40;93.00;;;8.07;93.83;99462.78;5049518;28;20798;-75
2024/02/18 06:58:52;;;;;;;11.03;7.97;;;8.40;93.30;;;8.01;93.09;99449.97;5049086;28;20732;-77
2024/02/18 07:01:19;;;;;;;9.60;8.00;;;8.40;93.30;;;8.16;92.70;99464.50;5050515;28;20460;-78
2024/02/18 07:03:47;;;;;;;9.40;8.43;;;8.50;93.10;;;7.93;91.43;99424.72;5049705;28;20458;-76
2024/02/18 07:06:17;;;;;;;9.80;8.70;;;8.50;92.50;;;8.16;92.47;99459.09;5048659;28;20454;-76
2024/02/18 07:08:47;;;;;;;8.97;8.07;;;8.50;92.70;;;8.33;91.70;99470.75;5047976;28;20465;-77
2024/02/18 07:11:18;;;;;;;11.10;9.03;;;8.60;92.70;;;8.46;91.15;99462.19;5049096;28;20785;-76
2024/02/18 07:13:45;;;;;;;9.47;8.20;;;8.70;92.50;;;8.25;91.25;99473.44;5064699;28;20491;-76
2024/02/18 07:16:12;;;;;;;9.63;8.70;;;8.70;92.00;;;8.49;90.12;99459.16;5062628;28;20465;-78
2024/02/18 07:18:39;;;;;;;9.10;8.10;;;8.80;92.00;;;8.50;89.89;99466.25;5053701;28;20466;-76
2024/02/18 07:21:07;;;;;;;9.90;8.90;;;8.80;91.60;;;8.62;89.04;99463.25;5050830;28;20457;-79
2024/02/18 07:23:35;;;;;;;10.13;9.10;;;8.90;91.50;;;8.31;89.25;99451.22;5051632;28;20864;-76
2024/02/18 07:26:03;;;;;;;14.30;8.63;;;8.90;91.00;;;8.48;89.99;99456.63;5050532;28;20458;-76
2024/02/18 07:28:30;;;;;;;8.83;7.97;;;8.80;91.30;;;8.35;89.29;99397.88;5048333;28;21169;-78
2024/02/18 07:30:57;;;;;;;12.13;8.80;;;8.90;91.40;;;8.55;88.82;99446.91;5051783;28;20443;-76
2024/02/18 07:33:25;;;;;;;9.60;8.60;;;9.00;90.90;;;8.44;89.36;99444.50;5062011;28;20456;-76
2024/02/18 07:35:52;;;;;;;9.73;8.73;;;8.90;90.90;;;8.18;89.20;99400.56;5054087;28;20569;-76
2024/02/18 07:38:19;;;;;;;10.13;8.50;;;9.00;91.00;;;8.40;89.25;99444.00;5054598;28;20466;-77
2024/02/18 07:40:48;;;;;;;11.50;9.53;;;8.90;90.80;;;8.61;88.24;99421.16;5054478;28;20450;-77
2024/02/18 07:43:15;;;;;;;9.13;8.07;;;9.10;91.00;;;8.74;87.00;99445.75;5059027;28;20442;-76
2024/02/18 07:45:43;;;;;;;11.20;8.20;;;9.20;90.50;;;8.75;87.41;99451.97;5049845;28;20464;-77
2024/02/18 07:48:10;;;;;;;10.20;8.53;;;9.20;90.40;;;8.66;87.67;99448.44;5048346;28;20463;-76
2024/02/18 07:50:37;;;;;;;9.50;8.60;;;9.10;90.40;;;8.73;87.32;99446.75;5049469;28;20471;-77
2024/02/18 07:53:05;;;;;;;10.67;9.50;;;9.10;90.30;;;8.73;87.14;99422.50;5050714;28;20465;-78
2024/02/18 07:55:32;;;;;;;10.03;8.80;;;9.20;90.20;;;8.90;86.99;99436.78;5048467;28;20471;-74
2024/02/18 07:58:02;;;;;;;9.63;8.60;;;9.20;90.20;;;8.96;85.64;99443.38;5051658;28;20451;-74
2024/02/18 08:00:29;;;;;;;11.27;8.90;;;9.30;90.10;;;8.96;85.14;99437.97;5052536;28;20449;-77
2024/02/18 08:02:56;;;;;;;12.87;9.30;;;9.30;90.10;;;8.74;86.38;99437.66;5051903;28;20459;-77
2024/02/18 08:05:23;;;;;;;9.77;8.77;;;9.20;90.00;;;8.72;86.53;99431.59;5070206;28;20462;-77
2024/02/18 08:07:50;;;;;;;11.40;9.03;;;9.20;90.10;;;8.79;86.32;99432.59;5067255;28;20516;-79
2024/02/18 08:10:18;;;;;;;9.10;8.17;;;9.10;90.10;;;8.84;86.12;99425.84;5048568;28;20450;-76
2024/02/18 08:12:45;;;;;;;10.97;9.13;;;9.20;90.10;;;8.79;86.52;99429.06;5049052;28;20837;-77
2024/02/18 08:15:14;;;;;;;12.40;9.37;;;9.20;90.10;;;8.83;86.48;99424.16;5047955;28;20483;-77
2024/02/18 08:17:42;;;;;;;11.93;9.90;;;9.20;90.00;;;9.09;85.87;99437.44;5048076;28;20523;-77
2024/02/18 08:20:11;;;;;;;10.63;9.27;;;9.30;90.00;;;9.04;86.05;99424.50;5048153;28;20444;-76
2024/02/18 08:22:38;;;;;;;14.10;9.87;;;9.40;89.80;;;8.92;85.57;99418.59;5049130;28;20454;-75
2024/02/18 08:25:08;;;;;;;16.57;10.27;;;9.40;89.70;;;8.92;85.47;99426.69;5047398;28;20453;-77
2024/02/18 08:27:35;;;;;;;11.93;9.57;;;9.40;89.30;;;8.63;86.98;99421.81;5048483;28;20886;-74
2024/02/18 08:30:03;;;;;;;12.03;10.63;;;9.20;89.70;;;8.49;86.45;99367.59;5046493;28;20464;-74
2024/02/18 08:32:31;;;;;;;12.80;9.60;;;9.20;90.10;;;8.95;85.97;99409.34;5046715;28;20459;-76
2024/02/18 08:34:58;;;;;;;13.63;10.57;;;9.30;90.00;;;8.85;85.60;99404.13;5058229;28;20473;-73
2024/02/18 08:37:26;;;;;;;15.10;10.53;;;9.30;89.80;;;8.97;86.24;99401.09;5058490;28;20458;-76
2024/02/18 08:39:53;;;;;;;13.30;10.03;;;9.30;89.90;;;9.05;85.34;99393.81;5058944;28;20444;-76
2024/02/18 08:42:20;;;;;;;16.20;11.87;;;9.40;89.70;;;9.22;84.71;99393.78;5047830;28;20449;-76
2024/02/18 08:44:47;;;;;;;14.53;11.13;;;9.50;89.60;;;9.26;84.67;99389.72;5044738;28;20463;-76
2024/02/18 08:47:15;;;;;;;13.87;11.07;;;9.60;89.30;;;9.62;82.96;99383.84;5054557;28;20450;-76
2024/02/18 08:49:43;;;;;;;15.03;11.47;;;9.70;89.10;;;9.67;81.94;99387.88;5051660;28;20972;-77
2024/02/18 08:52:11;;;;;;;14.80;12.10;;;9.90;88.50;;;9.86;81.48;99398.25;5051162;28;20449;-79
2024/02/18 08:54:38;;;;;;;11.67;10.20;;;10.00;87.30;;;10.01;82.76;99392.09;5048578;28;20532;-77
2024/02/18 08:57:06;;;;;;;11.67;10.47;;;10.20;87.70;;;10.26;79.93;99387.34;5070668;28;20537;-78
2024/02/18 08:59:33;;;;;;;13.33;11.93;;;10.50;86.70;;;10.38;78.52;99381.53;5049607;28;20927;-77
2024/02/18 09:02:00;;;;;;;15.20;10.10;;;10.60;85.70;;;10.36;78.89;99381.72;5039748;28;20503;-78
2024/02/18 09:04:28;;;;;;;13.53;11.30;;;10.60;85.40;;;10.24;78.29;99372.38;5052671;28;20475;-76
2024/02/18 09:06:57;;;;;;;12.10;10.57;;;10.60;84.90;;;10.25;78.11;99382.97;5054523;28;20451;-77
2024/02/18 09:09:25;;;;;;;13.67;11.40;;;10.60;84.70;;;9.75;79.27;99379.72;5040513;28;20582;-77
2024/02/18 09:11:52;;;;;;;13.80;11.20;;;10.40;84.40;;;9.73;79.42;99374.53;5064311;28;20455;-76
2024/02/18 09:14:19;;;;;;;14.50;10.73;;;10.20;84.60;;;9.95;78.72;99372.03;5046945;28;20454;-75
2024/02/18 09:16:46;;;;;;;15.30;11.73;;;10.30;84.90;;;10.27;78.01;99366.59;5047824;28;20842;-77
2024/02/18 09:19:13;;;;;;;15.63;11.30;;;10.40;84.70;;;10.31;77.41;99367.91;5046506;28;20456;-77
2024/02/18 09:21:41;;;;;;;13.27;11.03;;;10.60;84.40;;;10.43;76.45;99363.78;5047513;28;20542;-79
2024/02/18 09:24:10;;;;;;;12.53;11.23;;;10.70;83.90;;;10.64;75.31;99359.56;5053007;28;20439;-78
2024/02/18 09:26:37;;;;;;;15.30;12.60;;;10.90;83.60;;;10.91;74.47;99370.78;5046577;28;20456;-77
2024/02/18 09:29:04;;;;;;;14.37;10.60;;;11.10;83.20;;;11.31;72.49;99368.69;5045887;28;20514;-77
2024/02/18 09:31:36;;;;;;;11.90;10.60;;;11.40;82.70;;;11.51;71.60;99365.38;5033111;28;20472;-79
2024/02/18 09:34:04;;;;;;;18.03;11.43;;;11.60;82.20;;;11.14;71.45;99364.47;5042031;28;20546;-77
2024/02/18 09:36:33;;;;;;;13.03;11.60;;;11.60;81.10;;;11.25;71.32;99349.66;5042650;28;20472;-77
2024/02/18 09:39:00;;;;;;;14.30;9.70;;;11.60;81.00;;;11.31;71.11;99355.16;5046118;28;20452;-76
2024/02/18 09:41:29;;;;;;;13.47;10.20;;;11.60;80.90;;;11.71;69.18;99343.97;5057237;28;20695;-75
2024/02/18 09:44:05;;;;;;;14.70;9.10;;;11.80;80.70;;;11.74;69.05;99337.31;5050463;28;20461;-77
2024/02/18 09:46:36;;;;;;;13.20;10.20;;;12.00;80.10;;;12.15;68.11;99342.19;5057762;28;20446;-76
2024/02/18 09:49:05;;;;;;;11.27;9.53;;;12.30;79.80;;;12.20;67.72;99336.19;5082258;28;20461;-76
2024/02/18 09:51:34;;;;;;;11.23;9.90;;;12.40;79.30;;;12.30;67.18;99335.84;5051864;28;20882;-77
2024/02/18 09:54:04;;;;;;;11.70;8.13;;;12.50;78.80;;;12.35;66.11;99333.38;5043659;28;20489;-77
2024/02/18 09:56:33;;;;;;;7.77;6.70;;;12.70;78.20;;;12.62;63.22;99328.19;5047022;28;20475;-78
2024/02/18 09:59:01;;;;;;;12.27;9.43;;;12.90;76.70;;;13.04;62.47;99330.97;5049549;28;20474;-77
2024/02/18 10:01:28;;;;;;;10.57;9.37;;;13.10;76.40;;;13.04;62.53;99331.84;5045933;28;20455;-77
2024/02/18 10:03:56;;;;;;;10.63;8.37;;;13.30;75.90;;;13.19;61.84;99325.44;5038416;28;20921;-77
2024/02/18 10:06:23;;;;;;;8.07;7.27;;;13.50;75.40;;;12.97;62.07;99325.53;5046821;28;20449;-78
2024/02/18 10:08:54;;;;;;;9.63;7.63;;;13.50;74.90;;;13.13;60.74;99315.41;5046095;28;20452;-76
2024/02/18 10:11:22;;;;;;;8.07;7.23;;;13.50;74.00;;;12.90;60.92;99313.78;5043958;28;20453;-78
2024/02/18 10:13:52;;;;;;;9.73;7.23;;;13.50;73.60;;;13.14;60.28;99298.91;5049105;28;20468;-77
2024/02/18 10:16:19;;;;;;;8.53;7.40;;;13.50;73.60;;;13.85;58.95;99298.78;5046957;28;20563;-77
2024/02/18 10:18:46;;;;;;;7.30;6.60;;;13.80;73.50;;;13.52;57.56;99300.34;5071264;28;20457;-77
2024/02/18 10:21:15;;;;;;;6.40;5.20;;;13.90;71.70;;;13.10;57.66;99291.34;5077952;28;20465;-79
2024/02/18 10:23:42;;;;;;;6.23;5.30;;;13.60;70.40;;;13.14;57.29;99300.78;5047088;28;20445;-77
2024/02/18 10:26:11;;;;;;;6.73;5.87;;;13.50;70.20;;;12.80;57.58;99297.03;5050604;28;20467;-78